Time;durP1;ratioP1;P1;durP2;ratioP2;P2;SDS_P1;SDS_P2;PMS_P1;PMS_P2;Temp;Humidity;BMP_temperature;BMP_pressure;BME280_temperature;BME280_humidity;BME280_pressure;Samples;Min_cycle;Max_cycle;Signal;HPM_P1;HPM_P2
2021/05/29 00:01:07;;;;;;;;;;;;;;;12.27;70.31;97075.05;1786944;80;20164;-82
2021/05/29 00:03:33;;;;;;;;;;;;;;;12.20;69.74;97076.56;1787181;79;20120;-83
2021/05/29 00:06:01;;;;;;;;;;;;;;;12.14;70.24;97076.61;1810346;79;20164;-84
2021/05/29 00:08:27;;;;;;;;;;;;;;;12.08;69.95;97077.13;1785240;79;20179;-82
2021/05/29 00:10:55;;;;;;;;;;;;;;;12.01;70.30;97075.52;1777465;81;20128;-86
2021/05/29 00:13:25;;;;;;;;;;;;;;;11.95;69.94;97071.57;1777600;81;20179;-80
2021/05/29 00:15:52;;;;;;;;;;;;;;;11.92;70.60;97074.97;1777473;81;20108;-83
2021/05/29 00:18:19;;;;;;;;;;;;;;;11.87;70.08;97064.30;1777646;80;20155;-80
2021/05/29 00:20:47;;;;;;;;;;;;;;;11.84;71.20;97070.33;1785665;79;20106;-82
2021/05/29 00:23:13;;;;;;;;;;;;;;;11.81;71.79;97069.27;1795355;79;20156;-83
2021/05/29 00:25:40;;;;;;;;;;;;;;;11.77;70.89;97069.19;1786855;80;20160;-83
2021/05/29 00:28:09;;;;;;;;;;;;;;;11.73;72.10;97065.98;1780834;79;20117;-81
2021/05/29 00:30:37;;;;;;;;;;;;;;;11.67;71.73;97069.98;1786882;79;20148;-83
2021/05/29 00:33:04;;;;;;;;;;;;;;;11.64;70.66;97073.37;1787012;81;20125;-82
2021/05/29 00:35:30;;;;;;;;;;;;;;;11.62;70.18;97064.73;1787016;80;20135;-85
2021/05/29 00:38:04;;;;;;;;;;;;;;;11.63;72.01;97066.41;1787008;80;20104;-82
2021/05/29 00:40:32;;;;;;;;;;;;;;;11.64;70.22;97071.55;1741994;82;20157;-82
2021/05/29 00:43:00;;;;;;;;;;;;;;;11.64;70.85;97073.37;1741951;80;20162;-81
2021/05/29 00:45:27;;;;;;;;;;;;;;;11.63;71.14;97077.80;1741796;82;20158;-84
2021/05/29 00:47:56;;;;;;;;;;;;;;;11.66;72.42;97084.14;1741933;81;20132;-86
2021/05/29 00:50:31;;;;;;;;;;;;;;;11.67;72.41;97083.64;1768473;81;20144;-82
2021/05/29 00:53:14;;;;;;;;;;;;;;;11.69;71.42;97088.32;1669414;84;20162;-80
2021/05/29 00:55:40;;;;;;;;;;;;;;;11.67;71.38;97079.22;1629604;85;20172;-84
2021/05/29 00:58:06;;;;;;;;;;;;;;;11.69;72.61;97080.40;1637859;86;20136;-85
2021/05/29 01:00:32;;;;;;;;;;;;;;;11.70;72.36;97082.08;1661657;87;20138;-80
2021/05/29 01:03:00;;;;;;;;;;;;;;;11.73;72.43;97081.83;1631976;86;20109;-80
2021/05/29 01:05:26;;;;;;;;;;;;;;;11.74;71.51;97082.15;1631994;88;20119;-83
2021/05/29 01:07:55;;;;;;;;;;;;;;;11.72;71.36;97074.37;1632129;87;20122;-80
2021/05/29 01:10:24;;;;;;;;;;;;;;;11.68;71.42;97079.58;1633325;87;20151;-81
2021/05/29 01:12:59;;;;;;;;;;;;;;;11.67;71.15;97077.90;1659200;86;20111;-84
2021/05/29 01:15:42;;;;;;;;;;;;;;;11.68;70.93;97075.62;1706370;82;20110;-84
2021/05/29 01:18:11;;;;;;;;;;;;;;;11.67;72.37;97073.09;1666100;86;20121;-81
2021/05/29 01:20:38;;;;;;;;;;;;;;;11.68;71.96;97067.70;1666083;86;20126;-81
2021/05/29 01:23:04;;;;;;;;;;;;;;;11.66;71.52;97071.41;1666187;86;20185;-84
2021/05/29 01:25:36;;;;;;;;;;;;;;;11.63;72.22;97060.63;1665791;86;20165;-81
2021/05/29 01:28:06;;;;;;;;;;;;;;;11.61;71.28;97059.92;1665684;86;20169;-79
2021/05/29 01:30:40;;;;;;;;;;;;;;;11.59;70.69;97059.23;1665814;86;20156;-80
2021/05/29 01:33:13;;;;;;;;;;;;;;;11.59;70.91;97065.84;1665206;86;20160;-80
2021/05/29 01:35:40;;;;;;;;;;;;;;;11.59;71.63;97068.95;1664469;86;20138;-84
2021/05/29 01:38:27;;;;;;;;;;;;;;;11.58;71.57;97068.59;1664709;86;20141;-86
2021/05/29 01:40:59;;;;;;;;;;;;;;;11.57;71.77;97066.45;1724604;83;20166;-86
2021/05/29 01:43:25;;;;;;;;;;;;;;;11.56;71.72;97061.63;1724193;81;20170;-83
2021/05/29 01:45:52;;;;;;;;;;;;;;;11.58;71.01;97065.95;1724571;83;20103;-85
2021/05/29 01:48:19;;;;;;;;;;;;;;;11.55;71.37;97061.27;1724531;83;20103;-83
2021/05/29 01:50:53;;;;;;;;;;;;;;;11.53;70.93;97061.91;1724678;82;20097;-86
2021/05/29 01:53:20;;;;;;;;;;;;;;;11.52;70.89;97065.98;1675662;86;20115;-83
2021/05/29 01:55:47;;;;;;;;;;;;;;;11.48;70.72;97060.13;1675589;85;20130;-86
2021/05/29 01:58:14;;;;;;;;;;;;;;;11.47;71.70;97061.59;1699931;84;20132;-83
2021/05/29 02:00:41;;;;;;;;;;;;;;;11.46;71.43;97062.05;1701140;83;20161;-80
2021/05/29 02:03:08;;;;;;;;;;;;;;;11.46;71.17;97064.69;1677347;83;20168;-83
2021/05/29 02:05:35;;;;;;;;;;;;;;;11.45;71.47;97064.38;1693157;84;20168;-83
2021/05/29 02:08:03;;;;;;;;;;;;;;;11.44;71.13;97071.08;1675704;86;20544;-83
2021/05/29 02:10:33;;;;;;;;;;;;;;;11.44;71.84;97067.97;1672989;85;20132;-82
2021/05/29 02:13:01;;;;;;;;;;;;;;;11.44;71.34;97055.23;1660709;86;20157;-84
2021/05/29 02:15:29;;;;;;;;;;;;;;;11.45;72.02;97061.73;1660941;85;20168;-81
2021/05/29 02:18:22;;;;;;;;;;;;;;;11.46;72.15;97063.88;1660927;85;20100;-84
2021/05/29 02:23:34;;;;;;;;;;;;;;;11.43;72.13;97067.61;1619643;87;20165;-83
2021/05/29 02:26:21;;;;;;;;;;;;;;;11.40;72.27;97070.03;1619339;89;20169;-85
2021/05/29 02:28:54;;;;;;;;;;;;;;;11.37;71.81;97074.70;1668663;83;20176;-83
2021/05/29 02:31:20;;;;;;;;;;;;;;;11.32;71.64;97068.98;1668595;86;20133;-81
2021/05/29 02:33:47;;;;;;;;;;;;;;;11.25;72.10;97070.83;1668627;81;20172;-84
2021/05/29 02:36:13;;;;;;;;;;;;;;;11.20;72.16;97069.05;1668670;86;20122;-83
2021/05/29 02:38:47;;;;;;;;;;;;;;;11.18;72.23;97078.06;1668620;84;20118;-83
2021/05/29 02:41:15;;;;;;;;;;;;;;;11.15;71.89;97076.52;1706474;83;20454;-85
2021/05/29 02:43:42;;;;;;;;;;;;;;;11.12;71.45;97072.80;1726448;82;20180;-85
2021/05/29 02:46:15;;;;;;;;;;;;;;;11.09;72.26;97075.22;1726790;81;20172;-84
2021/05/29 02:48:42;;;;;;;;;;;;;;;11.06;72.45;97069.37;1698124;81;20159;-84
2021/05/29 02:51:11;;;;;;;;;;;;;;;11.05;72.66;97079.56;1682778;83;20168;-84
2021/05/29 02:53:45;;;;;;;;;;;;;;;11.02;72.71;97072.74;1682955;82;20188;-83
2021/05/29 02:56:21;;;;;;;;;;;;;;;11.02;72.23;97072.74;1629045;86;20134;-83
2021/05/29 02:58:47;;;;;;;;;;;;;;;11.01;71.59;97069.75;1628069;84;20130;-85
2021/05/29 03:01:19;;;;;;;;;;;;;;;11.02;72.18;97074.53;1611924;88;20118;-82
2021/05/29 03:03:46;;;;;;;;;;;;;;;11.03;72.44;97064.34;1703269;84;20122;-85
2021/05/29 03:06:12;;;;;;;;;;;;;;;11.04;72.90;97073.43;1703157;84;20099;-83
2021/05/29 03:08:38;;;;;;;;;;;;;;;11.06;72.33;97068.88;1703199;84;20154;-85
2021/05/29 03:11:05;;;;;;;;;;;;;;;11.11;71.86;97072.45;1701871;84;20140;-84
2021/05/29 03:13:31;;;;;;;;;;;;;;;11.15;71.64;97069.92;1701089;84;20116;-81
2021/05/29 03:15:57;;;;;;;;;;;;;;;11.19;72.14;97077.09;1701637;84;20523;-85
2021/05/29 03:18:23;;;;;;;;;;;;;;;11.24;72.26;97076.22;1701725;84;20135;-82
2021/05/29 03:20:51;;;;;;;;;;;;;;;11.30;72.42;97076.19;1701784;82;20135;-81
2021/05/29 03:23:17;;;;;;;;;;;;;;;11.36;71.87;97077.02;1701572;84;20147;-83
2021/05/29 03:25:43;;;;;;;;;;;;;;;11.41;72.00;97083.55;1701489;85;20202;-84
2021/05/29 03:28:10;;;;;;;;;;;;;;;11.47;71.43;97075.61;1701205;84;20122;-86
2021/05/29 03:30:37;;;;;;;;;;;;;;;11.55;71.30;97081.57;1700440;84;20142;-87
2021/05/29 03:33:03;;;;;;;;;;;;;;;11.64;71.38;97085.25;1699941;85;20163;-84
2021/05/29 03:35:29;;;;;;;;;;;;;;;11.74;71.85;97081.33;1701456;83;20150;-86
2021/05/29 03:37:56;;;;;;;;;;;;;;;11.84;71.63;97079.58;1701350;85;20126;-81
2021/05/29 03:40:22;;;;;;;;;;;;;;;11.94;71.29;97075.64;1699264;84;20146;-88
2021/05/29 03:42:48;;;;;;;;;;;;;;;12.07;70.70;97082.05;1698975;85;20194;-83
2021/05/29 03:45:17;;;;;;;;;;;;;;;12.18;70.67;97077.53;1673668;85;20147;-89
2021/05/29 03:47:44;;;;;;;;;;;;;;;12.32;70.36;97082.08;1699168;84;20107;-84
2021/05/29 03:50:13;;;;;;;;;;;;;;;12.46;70.30;97085.68;1699445;85;20155;-88
2021/05/29 03:52:42;;;;;;;;;;;;;;;12.65;70.11;97079.59;1699427;84;20139;-90
2021/05/29 03:55:11;;;;;;;;;;;;;;;12.90;69.92;97075.23;1698677;84;20222;-87
2021/05/29 03:57:37;;;;;;;;;;;;;;;13.27;69.53;97079.83;1697414;85;20155;-90
2021/05/29 04:00:05;;;;;;;;;;;;;;;13.63;68.49;97078.75;1697524;84;20174;-88
2021/05/29 04:02:33;;;;;;;;;;;;;;;13.98;67.84;97087.84;1705527;83;20174;-89
2021/05/29 04:04:59;;;;;;;;;;;;;;;14.26;67.10;97081.24;1718243;83;20172;-89
2021/05/29 04:07:26;;;;;;;;;;;;;;;14.56;66.99;97075.80;1718922;83;20161;-88
2021/05/29 04:09:52;;;;;;;;;;;;;;;14.84;65.32;97072.63;1693016;84;20160;-87
2021/05/29 04:12:18;;;;;;;;;;;;;;;15.09;65.33;97075.51;1723484;83;20182;-84
2021/05/29 04:14:46;;;;;;;;;;;;;;;15.28;65.26;97076.67;1719657;83;20465;-84
2021/05/29 04:17:12;;;;;;;;;;;;;;;15.52;65.46;97077.87;1693135;84;20790;-89
2021/05/29 04:19:38;;;;;;;;;;;;;;;15.74;64.48;97077.00;1723448;83;20165;-83
2021/05/29 04:22:07;;;;;;;;;;;;;;;15.85;61.80;97076.77;1719796;83;20181;-89
2021/05/29 04:24:33;;;;;;;;;;;;;;;15.95;61.02;97071.36;1693274;84;20165;-91
2021/05/29 04:26:59;;;;;;;;;;;;;;;16.19;61.07;97067.15;1723386;82;20170;-89
2021/05/29 04:29:25;;;;;;;;;;;;;;;16.55;61.67;97065.13;1719749;83;20216;-85
2021/05/29 04:31:51;;;;;;;;;;;;;;;17.09;59.19;97064.41;1692949;84;20140;-87
2021/05/29 04:34:18;;;;;;;;;;;;;;;17.66;61.32;97062.73;1723316;83;20162;-84
2021/05/29 04:36:44;;;;;;;;;;;;;;;18.21;61.14;97057.13;1719341;83;20180;-88
2021/05/29 04:39:10;;;;;;;;;;;;;;;18.75;57.68;97058.20;1718230;83;20501;-84
2021/05/29 04:41:36;;;;;;;;;;;;;;;19.32;55.75;97056.48;1718039;83;20144;-80
2021/05/29 04:44:02;;;;;;;;;;;;;;;19.89;52.28;97055.66;1718122;84;20156;-83
2021/05/29 04:46:28;;;;;;;;;;;;;;;20.26;52.33;97045.03;1718076;83;20168;-86
2021/05/29 04:48:55;;;;;;;;;;;;;;;20.58;50.55;97055.83;1719137;83;20164;-84
2021/05/29 04:51:21;;;;;;;;;;;;;;;20.80;52.06;97052.37;1692959;84;20172;-83
2021/05/29 04:53:50;;;;;;;;;;;;;;;20.85;50.84;97048.11;1723305;83;20150;-86
2021/05/29 04:56:18;;;;;;;;;;;;;;;20.96;49.05;97041.45;1692987;85;20157;-87
2021/05/29 04:58:44;;;;;;;;;;;;;;;20.99;48.51;97040.23;1723552;83;20154;-83
2021/05/29 05:01:11;;;;;;;;;;;;;;;21.14;49.81;97043.66;1719738;83;20176;-86
2021/05/29 05:03:39;;;;;;;;;;;;;;;21.35;47.21;97048.17;1719718;83;20176;-86
2021/05/29 05:06:06;;;;;;;;;;;;;;;21.56;46.80;97038.45;1692746;84;20168;-85
2021/05/29 05:08:32;;;;;;;;;;;;;;;21.77;48.76;97038.93;1723040;83;20170;-88
2021/05/29 05:10:59;;;;;;;;;;;;;;;21.97;43.78;97039.58;1719555;83;20476;-84
2021/05/29 05:13:25;;;;;;;;;;;;;;;22.20;42.32;97038.47;1693101;85;20169;-84
2021/05/29 05:15:52;;;;;;;;;;;;;;;22.48;43.14;97030.88;1723330;82;20174;-86
2021/05/29 05:18:23;;;;;;;;;;;;;;;22.65;41.86;97033.52;1719714;83;20160;-88
2021/05/29 05:20:47;;;;;;;;;;;;;;;22.78;41.44;97029.52;1719398;83;20533;-86
2021/05/29 05:23:14;;;;;;;;;;;;;;;22.93;40.55;97027.19;1719591;83;20251;-85
2021/05/29 05:25:41;;;;;;;;;;;;;;;23.08;39.25;97030.51;1692637;84;20151;-85
2021/05/29 05:28:07;;;;;;;;;;;;;;;23.32;39.35;97030.14;1718336;84;20242;-85
2021/05/29 05:30:34;;;;;;;;;;;;;;;23.53;39.09;97025.06;1718192;83;20160;-84
2021/05/29 05:33:04;;;;;;;;;;;;;;;23.81;41.43;97035.61;1718079;84;20164;-85
2021/05/29 05:35:28;;;;;;;;;;;;;;;24.03;38.18;97031.87;1717906;83;20235;-86
2021/05/29 05:37:55;;;;;;;;;;;;;;;24.25;37.07;97028.38;1718335;84;20208;-83
2021/05/29 05:40:22;;;;;;;;;;;;;;;24.31;36.95;97032.41;1718268;83;20216;-85
2021/05/29 05:42:48;;;;;;;;;;;;;;;24.35;36.19;97031.45;1718096;84;20164;-87
2021/05/29 05:45:15;;;;;;;;;;;;;;;24.47;35.57;97030.27;1718028;83;20140;-87
2021/05/29 05:47:42;;;;;;;;;;;;;;;24.77;36.32;97032.44;1718145;83;20165;-85
2021/05/29 05:50:09;;;;;;;;;;;;;;;25.13;35.63;97026.92;1718160;84;20513;-84
2021/05/29 05:52:36;;;;;;;;;;;;;;;25.60;35.75;97030.65;1718358;83;20156;-87
2021/05/29 05:55:07;;;;;;;;;;;;;;;26.09;34.96;97025.92;1719463;83;20172;-87
2021/05/29 05:57:33;;;;;;;;;;;;;;;26.62;33.74;97023.96;1719777;83;20171;-89
2021/05/29 06:00:00;;;;;;;;;;;;;;;27.23;33.12;97023.94;1719712;83;20152;-85
2021/05/29 06:02:26;;;;;;;;;;;;;;;27.67;36.45;97024.19;1719406;83;20180;-85
2021/05/29 06:04:53;;;;;;;;;;;;;;;27.90;41.09;97017.44;1719668;83;20179;-83
2021/05/29 06:07:19;;;;;;;;;;;;;;;28.09;31.68;97021.91;1692898;85;20215;-89
2021/05/29 06:09:46;;;;;;;;;;;;;;;28.39;30.86;97018.20;1723149;83;20490;-88
2021/05/29 06:12:12;;;;;;;;;;;;;;;28.49;30.67;97016.51;1719739;83;20228;-87
2021/05/29 06:20:12;;;;;;;;;;;;;;;28.89;30.64;97012.16;1719379;83;20224;-85
2021/05/29 06:22:42;;;;;;;;;;;;;;;29.16;36.68;97023.75;1692915;84;20152;-83
2021/05/29 06:25:11;;;;;;;;;;;;;;;29.39;29.14;97014.67;1723159;82;20171;-83
2021/05/29 06:27:37;;;;;;;;;;;;;;;29.55;28.73;97014.39;1719496;83;20198;-86
2021/05/29 06:30:06;;;;;;;;;;;;;;;29.74;32.29;97018.20;1692487;85;20172;-85
2021/05/29 06:32:32;;;;;;;;;;;;;;;29.99;27.98;97006.88;1717886;83;20572;-85
2021/05/29 06:34:58;;;;;;;;;;;;;;;29.97;31.25;97017.72;1718311;83;20452;-86
2021/05/29 06:37:25;;;;;;;;;;;;;;;29.75;28.12;97012.51;1718263;83;20156;-86
2021/05/29 06:39:52;;;;;;;;;;;;;;;29.80;28.43;97014.99;1718775;83;20176;-88
2021/05/29 06:42:18;;;;;;;;;;;;;;;29.72;28.24;97013.55;1693200;84;20524;-86
2021/05/29 06:44:45;;;;;;;;;;;;;;;29.48;30.11;97014.26;1723350;83;20475;-84
2021/05/29 06:47:11;;;;;;;;;;;;;;;29.22;31.23;97024.67;1691817;85;20164;-85
2021/05/29 06:49:40;;;;;;;;;;;;;;;28.99;29.03;97019.64;1718218;84;20212;-84
2021/05/29 06:52:12;;;;;;;;;;;;;;;28.92;29.86;97017.08;1718448;83;20184;-85
2021/05/29 06:59:49;;;;;;;;;;;;;;;29.35;29.44;97017.58;1718504;83;20173;-87
2021/05/29 07:02:15;;;;;;;;;;;;;;;29.61;33.50;97020.69;1718444;83;20179;-87
2021/05/29 07:04:41;;;;;;;;;;;;;;;29.54;28.82;97016.81;1718317;84;20164;-88
2021/05/29 07:07:08;;;;;;;;;;;;;;;29.72;28.65;97021.14;1718323;83;20564;-85
2021/05/29 07:09:34;;;;;;;;;;;;;;;29.85;27.94;97015.09;1718416;84;20156;-83
2021/05/29 07:12:00;;;;;;;;;;;;;;;29.79;29.46;97019.62;1718447;82;20188;-86
2021/05/29 07:14:26;;;;;;;;;;;;;;;29.64;32.14;97017.49;1718538;83;20132;-86
2021/05/29 07:16:54;;;;;;;;;;;;;;;29.48;29.97;97015.06;1718506;84;20184;-87
2021/05/29 07:19:22;;;;;;;;;;;;;;;29.38;28.48;97013.55;1718675;83;20168;-88
2021/05/29 07:21:50;;;;;;;;;;;;;;;29.43;29.00;97017.71;1718339;83;20164;-87
2021/05/29 07:24:17;;;;;;;;;;;;;;;29.44;28.48;97018.81;1718427;83;20164;-88
2021/05/29 07:26:44;;;;;;;;;;;;;;;29.25;28.82;97016.86;1696221;84;20164;-89
2021/05/29 07:29:11;;;;;;;;;;;;;;;29.11;29.15;97014.16;1710494;83;20171;-88
2021/05/29 07:31:37;;;;;;;;;;;;;;;29.07;28.92;97016.53;1719068;83;20152;-88
2021/05/29 07:34:08;;;;;;;;;;;;;;;29.12;29.89;97013.09;1720743;83;20172;-89
2021/05/29 07:36:36;;;;;;;;;;;;;;;28.93;29.09;97013.30;1693306;84;20199;-89
2021/05/29 07:39:03;;;;;;;;;;;;;;;28.76;28.99;97020.06;1692926;85;20190;-83
2021/05/29 07:41:29;;;;;;;;;;;;;;;28.48;33.56;97019.47;1693252;85;20209;-82
2021/05/29 07:43:55;;;;;;;;;;;;;;;28.38;30.75;97013.84;1693032;85;20194;-90
2021/05/29 07:46:22;;;;;;;;;;;;;;;28.29;29.00;97009.34;1692804;85;20163;-88
2021/05/29 07:48:50;;;;;;;;;;;;;;;28.39;31.86;97010.06;1722354;83;20160;-82
2021/05/29 07:51:16;;;;;;;;;;;;;;;28.42;28.12;97014.47;1703469;84;20176;-82
2021/05/29 07:53:43;;;;;;;;;;;;;;;27.79;28.63;97004.72;1709429;84;20506;-83
2021/05/29 07:56:12;;;;;;;;;;;;;;;27.65;29.34;97010.91;1709740;83;20240;-80
2021/05/29 07:58:43;;;;;;;;;;;;;;;28.02;29.47;97003.88;1709439;84;20173;-88
2021/05/29 08:01:06;;;;;;;;;;;;;;;28.38;31.07;97001.12;1692648;83;20170;-82
2021/05/29 08:03:33;;;;;;;;;;;;;;;28.57;28.65;97009.89;1692164;84;20154;-83
2021/05/29 08:06:04;;;;;;;;;;;;;;;28.71;27.93;97002.88;1691880;84;20225;-83
2021/05/29 08:08:29;;;;;;;;;;;;;;;28.77;28.29;96996.47;1708751;83;20187;-83
2021/05/29 08:10:57;;;;;;;;;;;;;;;28.68;28.96;96999.54;1707890;83;20163;-85
2021/05/29 08:13:27;;;;;;;;;;;;;;;28.74;28.23;97001.85;1705358;84;20495;-85
2021/05/29 08:15:53;;;;;;;;;;;;;;;28.90;28.52;96993.98;1708779;84;20222;-83
2021/05/29 08:18:20;;;;;;;;;;;;;;;28.96;27.97;97005.20;1708089;84;20183;-79
2021/05/29 08:20:48;;;;;;;;;;;;;;;28.49;28.95;96996.73;1708653;84;20202;-81
2021/05/29 08:23:15;;;;;;;;;;;;;;;26.76;30.21;96991.33;1721642;83;20181;-79
2021/05/29 08:25:41;;;;;;;;;;;;;;;25.49;31.20;96994.40;1721618;83;20202;-82
2021/05/29 08:28:08;;;;;;;;;;;;;;;24.47;33.40;96993.39;1721319;83;20168;-81
2021/05/29 08:30:35;;;;;;;;;;;;;;;24.19;33.99;96992.89;1721420;83;20180;-82
2021/05/29 08:33:01;;;;;;;;;;;;;;;24.40;34.83;96996.64;1721667;83;20500;-82
2021/05/29 08:35:29;;;;;;;;;;;;;;;24.76;34.82;96997.94;1722034;83;20472;-83
2021/05/29 08:37:55;;;;;;;;;;;;;;;25.14;34.28;96996.75;1721741;83;20614;-81
2021/05/29 08:40:21;;;;;;;;;;;;;;;25.41;34.05;97005.48;1721717;82;20167;-83
2021/05/29 08:42:48;;;;;;;;;;;;;;;25.56;33.98;97000.59;1721896;83;20156;-84
2021/05/29 08:45:21;;;;;;;;;;;;;;;25.66;34.05;97008.16;1731504;82;20174;-81
2021/05/29 08:47:49;;;;;;;;;;;;;;;25.68;32.85;97006.08;1722465;81;20742;-86
2021/05/29 08:50:16;;;;;;;;;;;;;;;25.84;33.41;97003.33;1707444;83;20175;-85
2021/05/29 08:52:43;;;;;;;;;;;;;;;25.78;32.20;97007.44;1679612;84;20148;-83
2021/05/29 08:55:12;;;;;;;;;;;;;;;25.56;32.59;97004.64;1718107;83;20144;-86
2021/05/29 08:57:39;;;;;;;;;;;;;;;25.50;32.94;97010.08;1708981;82;20525;-83
2021/05/29 09:00:08;;;;;;;;;;;;;;;25.39;34.30;97012.45;1707333;82;20156;-91
2021/05/29 09:02:55;;;;;;;;;;;;;;;25.37;33.26;97015.04;1681041;84;20208;-84
2021/05/29 09:05:21;;;;;;;;;;;;;;;25.36;32.59;97018.24;1711296;83;20156;-86
2021/05/29 09:08:05;;;;;;;;;;;;;;;25.25;32.38;97008.16;1677697;84;20190;-90
2021/05/29 09:10:34;;;;;;;;;;;;;;;24.68;34.17;97014.36;1701367;83;20194;-82
2021/05/29 09:13:07;;;;;;;;;;;;;;;23.99;34.33;97007.23;1701431;84;20169;-79
2021/05/29 09:15:45;;;;;;;;;;;;;;;23.21;35.38;96995.30;1700870;84;20170;-86
2021/05/29 09:18:33;;;;;;;;;;;;;;;22.84;36.38;97002.88;1701644;84;20202;-83
2021/05/29 09:21:25;;;;;;;;;;;;;;;22.96;37.04;97003.10;1701729;84;20525;-88
2021/05/29 09:23:55;;;;;;;;;;;;;;;22.72;36.58;97008.03;1701550;84;20220;-85
2021/05/29 09:26:23;;;;;;;;;;;;;;;22.49;37.38;97002.48;1694097;84;20509;-86
2021/05/29 09:28:50;;;;;;;;;;;;;;;22.72;37.38;97008.84;1701216;84;20208;-83
2021/05/29 09:31:17;;;;;;;;;;;;;;;22.46;37.16;97003.72;1701351;84;20185;-87
2021/05/29 09:33:44;;;;;;;;;;;;;;;22.34;37.75;97009.30;1701481;84;20178;-86
2021/05/29 09:36:13;;;;;;;;;;;;;;;22.48;37.18;97012.08;1701585;84;20521;-83
2021/05/29 09:38:45;;;;;;;;;;;;;;;22.15;36.67;97004.99;1678137;84;20533;-88
2021/05/29 09:41:33;;;;;;;;;;;;;;;22.04;37.63;97017.62;1701630;84;20185;-85
2021/05/29 09:44:18;;;;;;;;;;;;;;;22.28;37.25;97002.88;1701668;84;20506;-85
2021/05/29 09:46:51;;;;;;;;;;;;;;;22.51;36.59;97009.82;1697110;84;20189;-85
2021/05/29 09:49:17;;;;;;;;;;;;;;;22.64;36.78;97014.93;1700609;84;20185;-82
2021/05/29 09:51:43;;;;;;;;;;;;;;;22.80;36.44;97008.33;1701347;84;20186;-84
2021/05/29 09:54:13;;;;;;;;;;;;;;;22.92;36.48;97011.56;1701546;84;20213;-81
2021/05/29 09:56:45;;;;;;;;;;;;;;;23.08;37.27;97011.69;1694565;84;20177;-81
2021/05/29 09:59:23;;;;;;;;;;;;;;;23.31;37.35;97010.51;1697248;84;20136;-79
2021/05/29 10:01:52;;;;;;;;;;;;;;;23.58;36.24;97009.15;1683507;85;20158;-88
2021/05/29 10:04:36;;;;;;;;;;;;;;;23.67;36.95;97021.34;1676922;85;20174;-82
2021/05/29 10:07:08;;;;;;;;;;;;;;;23.64;36.11;97018.25;1668450;86;20199;-85
2021/05/29 10:09:34;;;;;;;;;;;;;;;23.58;36.43;97011.00;1695622;83;20178;-85
2021/05/29 10:12:03;;;;;;;;;;;;;;;23.70;35.89;97020.94;1695954;85;20158;-89
2021/05/29 10:14:31;;;;;;;;;;;;;;;23.81;35.87;97018.12;1696073;85;20158;-85
2021/05/29 10:16:59;;;;;;;;;;;;;;;24.04;36.05;97018.72;1696100;85;20162;-90
2021/05/29 10:19:26;;;;;;;;;;;;;;;24.23;35.39;97015.64;1695381;84;20193;-83
2021/05/29 10:21:53;;;;;;;;;;;;;;;24.42;34.84;97008.55;1696133;85;20170;-91
2021/05/29 10:24:21;;;;;;;;;;;;;;;24.52;36.67;97010.27;1695822;85;20174;-83
2021/05/29 10:26:48;;;;;;;;;;;;;;;24.33;35.75;97009.29;1706406;83;20222;-85
2021/05/29 10:29:14;;;;;;;;;;;;;;;24.40;35.83;97007.42;1724926;83;20175;-90
2021/05/29 10:31:42;;;;;;;;;;;;;;;24.60;34.84;97003.27;1724724;83;20172;-91
2021/05/29 10:34:09;;;;;;;;;;;;;;;24.84;35.78;97008.15;1725052;83;20203;-81
2021/05/29 10:36:38;;;;;;;;;;;;;;;24.79;35.06;97014.19;1725079;83;20204;-86
2021/05/29 10:39:07;;;;;;;;;;;;;;;24.44;33.83;97001.89;1724831;83;20152;-82
2021/05/29 10:41:55;;;;;;;;;;;;;;;24.13;34.56;97008.84;1724820;83;20152;-87
2021/05/29 10:44:29;;;;;;;;;;;;;;;24.17;35.74;97003.88;1724668;83;20171;-86
2021/05/29 10:47:17;;;;;;;;;;;;;;;24.18;34.33;97005.52;1724870;83;20143;-84
2021/05/29 10:49:55;;;;;;;;;;;;;;;23.76;35.10;96999.60;1724609;83;20140;-92
2021/05/29 10:52:36;;;;;;;;;;;;;;;23.42;36.00;96998.83;1721819;83;20560;-81
2021/05/29 10:55:19;;;;;;;;;;;;;;;23.50;36.02;96995.92;1724875;83;20167;-83
2021/05/29 10:58:02;;;;;;;;;;;;;;;23.51;36.16;96990.85;1725026;83;20465;-90
2021/05/29 11:00:41;;;;;;;;;;;;;;;23.28;36.18;96998.81;1724980;83;20543;-83
2021/05/29 11:03:21;;;;;;;;;;;;;;;23.19;36.73;97006.77;1724962;83;20502;-88
2021/05/29 11:05:49;;;;;;;;;;;;;;;23.13;36.91;96996.82;1731818;83;20151;-87
2021/05/29 11:08:47;;;;;;;;;;;;;;;23.12;37.08;97002.70;1729918;83;20183;-83
2021/05/29 11:14:10;;;;;;;;;;;;;;;22.95;37.67;97006.81;1695053;85;20580;-82
2021/05/29 11:16:53;;;;;;;;;;;;;;;23.03;37.37;97010.15;1694650;85;20153;-82
2021/05/29 11:19:22;;;;;;;;;;;;;;;23.12;37.45;97020.70;1723408;83;20174;-85
2021/05/29 11:22:17;;;;;;;;;;;;;;;23.18;37.77;97022.55;1724167;83;20154;-80
2021/05/29 11:24:52;;;;;;;;;;;;;;;23.28;37.78;97019.51;1724057;83;20150;-82
2021/05/29 11:27:27;;;;;;;;;;;;;;;23.33;37.83;97026.42;1723724;83;20146;-82
2021/05/29 11:30:08;;;;;;;;;;;;;;;23.24;36.77;97034.70;1724236;83;20166;-81
2021/05/29 11:33:12;;;;;;;;;;;;;;;23.14;36.94;97027.52;1724208;83;20150;-83
2021/05/29 11:35:46;;;;;;;;;;;;;;;23.02;37.59;97025.96;1721960;83;20494;-86
2021/05/29 11:38:20;;;;;;;;;;;;;;;22.95;37.54;97029.66;1724192;83;20174;-86
2021/05/29 11:41:00;;;;;;;;;;;;;;;22.98;38.07;97025.23;1706529;84;20160;-81
2021/05/29 11:43:50;;;;;;;;;;;;;;;22.95;38.03;97029.66;1706535;84;20208;-81
2021/05/29 11:46:22;;;;;;;;;;;;;;;22.98;37.60;97030.61;1706606;84;20194;-81
2021/05/29 11:48:57;;;;;;;;;;;;;;;23.00;37.75;97028.55;1706517;84;20176;-86
2021/05/29 11:51:29;;;;;;;;;;;;;;;22.99;37.95;97025.55;1706620;84;20252;-85
2021/05/29 11:54:08;;;;;;;;;;;;;;;22.95;37.33;97022.44;1706614;84;20192;-84
2021/05/29 11:56:44;;;;;;;;;;;;;;;22.93;37.82;97020.47;1706596;84;20156;-81
2021/05/29 11:59:13;;;;;;;;;;;;;;;22.97;38.19;97024.91;1706365;84;20177;-85
2021/05/29 12:01:42;;;;;;;;;;;;;;;22.94;37.42;97022.13;1706620;84;20160;-85
2021/05/29 12:04:10;;;;;;;;;;;;;;;22.91;37.75;97024.71;1707520;83;20145;-83
2021/05/29 12:06:45;;;;;;;;;;;;;;;22.87;37.62;97023.45;1715856;84;20203;-81
2021/05/29 12:09:21;;;;;;;;;;;;;;;22.91;37.54;97022.52;1715909;84;20176;-82
2021/05/29 12:11:50;;;;;;;;;;;;;;;22.94;37.68;97024.81;1715902;82;20509;-82
2021/05/29 12:14:25;;;;;;;;;;;;;;;22.94;38.38;97027.50;1714921;84;20194;-85
2021/05/29 12:17:01;;;;;;;;;;;;;;;22.78;37.55;97025.48;1715528;84;20172;-85
2021/05/29 12:19:49;;;;;;;;;;;;;;;22.68;38.04;97026.91;1721125;83;20135;-84
2021/05/29 12:22:21;;;;;;;;;;;;;;;22.33;37.49;97002.27;1683822;85;20209;-84
2021/05/29 12:25:04;;;;;;;;;;;;;;;22.15;37.84;97018.94;1677077;86;20190;-82
2021/05/29 12:27:33;;;;;;;;;;;;;;;21.96;38.67;97022.66;1677212;86;20289;-84
2021/05/29 12:30:05;;;;;;;;;;;;;;;21.75;39.08;97022.72;1676924;86;20220;-85
2021/05/29 12:32:37;;;;;;;;;;;;;;;21.72;40.17;97020.42;1677439;85;20178;-86
2021/05/29 12:35:11;;;;;;;;;;;;;;;21.64;40.22;97019.56;1677023;86;20178;-86
2021/05/29 12:37:38;;;;;;;;;;;;;;;21.51;41.20;97016.77;1658426;86;20207;-84
2021/05/29 12:40:13;;;;;;;;;;;;;;;21.46;40.77;97015.16;1677284;85;20523;-84
2021/05/29 12:42:49;;;;;;;;;;;;;;;21.35;41.25;97011.98;1677018;85;20150;-80
2021/05/29 12:45:20;;;;;;;;;;;;;;;21.30;42.26;97025.16;1676942;84;20468;-84
2021/05/29 12:48:02;;;;;;;;;;;;;;;21.19;43.79;97017.13;1677484;85;20209;-83
2021/05/29 12:50:38;;;;;;;;;;;;;;;21.14;42.09;97014.71;1677239;85;20162;-82
2021/05/29 12:53:12;;;;;;;;;;;;;;;21.03;44.92;97022.23;1677151;86;20187;-85
2021/05/29 12:55:38;;;;;;;;;;;;;;;20.94;45.32;97019.86;1676958;85;20210;-84
2021/05/29 12:58:25;;;;;;;;;;;;;;;20.87;44.43;97017.14;1677268;86;20167;-87
2021/05/29 13:01:24;;;;;;;;;;;;;;;20.77;43.41;97017.96;1666235;85;20204;-81
2021/05/29 13:09:20;;;;;;;;;;;;;;;20.28;46.26;97022.41;1696927;83;20212;-90
2021/05/29 13:11:45;;;;;;;;;;;;;;;20.09;48.95;97019.00;1696360;83;20500;-87
2021/05/29 13:14:17;;;;;;;;;;;;;;;19.93;48.22;97020.83;1696491;83;20176;-88
2021/05/29 13:16:59;;;;;;;;;;;;;;;19.82;49.05;97030.61;1696600;85;20167;-88
2021/05/29 13:19:43;;;;;;;;;;;;;;;19.71;48.44;97023.88;1696570;85;20176;-90
2021/05/29 13:22:15;;;;;;;;;;;;;;;19.55;49.61;97021.37;1696481;85;20227;-86
2021/05/29 13:24:49;;;;;;;;;;;;;;;19.45;48.46;97022.95;1695505;84;20231;-90